FDX1307 KIND-CYUL
Flight info
| Callsign | FDX1307 |
|---|---|
| Flight time | N/A |
| Altitude | 33000 |
| Route | MAREO5 BDOCK DCT CASIO DCT SRPEN DCT JHW DCT ART IMPAC4 |
| Aircraft | B77L/H-SDE1E2E3FGHIJ2J3J4J5M1RWXY/LB1D1 |
Departure
| Time | N/A |
|---|---|
| Airport | Indianapolis International Airport (KIND) |
Arrival
| Time | 2026-05-06 22:54 |
|---|---|
| Airport | Montreal / Pierre Elliott Trudeau International Airport (CYUL) |
| Time | Latitude | Longitude | Altitude | Speed | Heading |
|---|---|---|---|---|---|
| 2026-05-06 21:54 | 41.25708 | -81.23893 | 32982 ft | 601 kts | 51° |
| 2026-05-06 21:55 | 41.30053 | -81.14335 | 32978 ft | 603 kts | 52° |
| 2026-05-06 21:55 | 41.34366 | -81.04802 | 32981 ft | 604 kts | 52° |
| 2026-05-06 21:56 | 41.38704 | -80.95201 | 32968 ft | 605 kts | 52° |
| 2026-05-06 21:56 | 41.43046 | -80.85570 | 32961 ft | 605 kts | 52° |
| 2026-05-06 21:57 | 41.47376 | -80.75934 | 32957 ft | 605 kts | 52° |
| 2026-05-06 21:57 | 41.51695 | -80.66290 | 32969 ft | 604 kts | 52° |
| 2026-05-06 21:58 | 41.55977 | -80.56701 | 32985 ft | 604 kts | 52° |
| 2026-05-06 21:58 | 41.60272 | -80.47049 | 32965 ft | 603 kts | 52° |
| 2026-05-06 21:59 | 41.64553 | -80.37400 | 32970 ft | 602 kts | 52° |
| 2026-05-06 21:59 | 41.68821 | -80.27751 | 32969 ft | 602 kts | 52° |
| 2026-05-06 22:00 | 41.73074 | -80.18103 | 32967 ft | 602 kts | 52° |
| 2026-05-06 22:00 | 41.77297 | -80.08491 | 32965 ft | 601 kts | 53° |
| 2026-05-06 22:01 | 41.81533 | -79.98818 | 32964 ft | 601 kts | 53° |
| 2026-05-06 22:01 | 41.85758 | -79.89140 | 32972 ft | 600 kts | 53° |
| 2026-05-06 22:02 | 41.89946 | -79.79515 | 32969 ft | 600 kts | 53° |
| 2026-05-06 22:02 | 41.94144 | -79.69837 | 32977 ft | 600 kts | 53° |
| 2026-05-06 22:03 | 41.98338 | -79.60135 | 32961 ft | 599 kts | 53° |
| 2026-05-06 22:03 | 42.02521 | -79.50428 | 32959 ft | 598 kts | 53° |
| 2026-05-06 22:04 | 42.06682 | -79.40739 | 32945 ft | 597 kts | 54° |
| 2026-05-06 22:04 | 42.10813 | -79.31090 | 32946 ft | 598 kts | 53° |
| 2026-05-06 22:05 | 42.14963 | -79.21361 | 32938 ft | 596 kts | 54° |
| 2026-05-06 22:05 | 42.19187 | -79.11778 | 32925 ft | 589 kts | 49° |
| 2026-05-06 22:06 | 42.24142 | -79.03133 | 32947 ft | 579 kts | 41° |
| 2026-05-06 22:06 | 42.29265 | -78.94852 | 32940 ft | 578 kts | 41° |
| 2026-05-06 22:07 | 42.34393 | -78.86485 | 32950 ft | 577 kts | 42° |
| 2026-05-06 22:07 | 42.39466 | -78.78072 | 32955 ft | 576 kts | 43° |
| 2026-05-06 22:08 | 42.44514 | -78.69630 | 32950 ft | 576 kts | 43° |
| 2026-05-06 22:08 | 42.49554 | -78.61185 | 32934 ft | 575 kts | 43° |
| 2026-05-06 22:09 | 42.54578 | -78.52753 | 32932 ft | 573 kts | 43° |
| 2026-05-06 22:09 | 42.59578 | -78.44341 | 32942 ft | 571 kts | 43° |
| 2026-05-06 22:10 | 42.64526 | -78.35993 | 32930 ft | 570 kts | 44° |
| 2026-05-06 22:10 | 42.69490 | -78.27596 | 32932 ft | 568 kts | 44° |
| 2026-05-06 22:11 | 42.74439 | -78.19200 | 32922 ft | 567 kts | 44° |
| 2026-05-06 22:11 | 42.79347 | -78.10850 | 32917 ft | 565 kts | 44° |
| 2026-05-06 22:12 | 42.84213 | -78.02547 | 32923 ft | 564 kts | 45° |
| 2026-05-06 22:12 | 42.89099 | -77.94184 | 32908 ft | 563 kts | 45° |
| 2026-05-06 22:13 | 42.93966 | -77.85832 | 32913 ft | 560 kts | 45° |
| 2026-05-06 22:13 | 42.97984 | -77.78918 | 32916 ft | 559 kts | 45° |
| 2026-05-06 22:14 | 43.02808 | -77.70598 | 32906 ft | 557 kts | 45° |
| 2026-05-06 22:14 | 43.07613 | -77.62289 | 32913 ft | 557 kts | 46° |
| 2026-05-06 22:15 | 43.12413 | -77.53962 | 32901 ft | 555 kts | 46° |
| 2026-05-06 22:15 | 43.17161 | -77.45703 | 32921 ft | 554 kts | 46° |
| 2026-05-06 22:16 | 43.21927 | -77.37389 | 32916 ft | 553 kts | 46° |
| 2026-05-06 22:16 | 43.26668 | -77.29095 | 32926 ft | 551 kts | 46° |
| 2026-05-06 22:17 | 43.31392 | -77.20808 | 32934 ft | 550 kts | 47° |
| 2026-05-06 22:17 | 43.36105 | -77.12516 | 32930 ft | 549 kts | 47° |
| 2026-05-06 22:18 | 43.40809 | -77.04218 | 32918 ft | 548 kts | 47° |
| 2026-05-06 22:18 | 43.45454 | -76.96000 | 32924 ft | 547 kts | 47° |
| 2026-05-06 22:19 | 43.50117 | -76.87726 | 32923 ft | 547 kts | 47° |
| 2026-05-06 22:19 | 43.54771 | -76.79445 | 32930 ft | 546 kts | 48° |
| 2026-05-06 22:20 | 43.59412 | -76.71166 | 32924 ft | 545 kts | 48° |
| 2026-05-06 22:20 | 43.64046 | -76.62873 | 32925 ft | 545 kts | 48° |
| 2026-05-06 22:21 | 43.68679 | -76.54560 | 32901 ft | 545 kts | 48° |
| 2026-05-06 22:21 | 43.73292 | -76.46258 | 32931 ft | 544 kts | 48° |
| 2026-05-06 22:22 | 43.77862 | -76.38009 | 32923 ft | 543 kts | 49° |
| 2026-05-06 22:22 | 43.82452 | -76.29702 | 32895 ft | 542 kts | 49° |
| 2026-05-06 22:23 | 43.87020 | -76.21411 | 32891 ft | 542 kts | 49° |
| 2026-05-06 22:23 | 43.91594 | -76.13085 | 32911 ft | 541 kts | 49° |
| 2026-05-06 22:24 | 43.96381 | -76.05159 | 32879 ft | 531 kts | 33° |
| 2026-05-06 22:24 | 43.99390 | -76.02308 | 32931 ft | 520 kts | 24° |
| 2026-05-06 22:24 | 44.02495 | -75.99713 | 32895 ft | 520 kts | 24° |
| 2026-05-06 22:25 | 44.08648 | -75.94564 | 32882 ft | 504 kts | 24° |
| 2026-05-06 22:25 | 44.11583 | -75.92018 | 32873 ft | 491 kts | 25° |
| 2026-05-06 22:25 | 44.14465 | -75.89481 | 32493 ft | 492 kts | 25° |
| 2026-05-06 22:26 | 44.17367 | -75.86916 | 31853 ft | 495 kts | 26° |
| 2026-05-06 22:26 | 44.20269 | -75.84333 | 31406 ft | 491 kts | 26° |
| 2026-05-06 22:26 | 44.23134 | -75.81775 | 30966 ft | 487 kts | 26° |
| 2026-05-06 22:26 | 44.25982 | -75.79231 | 30543 ft | 483 kts | 26° |
| 2026-05-06 22:27 | 44.28777 | -75.76735 | 30136 ft | 480 kts | 27° |
| 2026-05-06 22:27 | 44.31577 | -75.74233 | 29690 ft | 476 kts | 27° |
| 2026-05-06 22:27 | 44.34351 | -75.71754 | 29220 ft | 472 kts | 27° |
| 2026-05-06 22:27 | 44.37107 | -75.69287 | 28790 ft | 467 kts | 27° |
| 2026-05-06 22:28 | 44.39831 | -75.66847 | 28380 ft | 463 kts | 27° |
| 2026-05-06 22:28 | 44.42526 | -75.64431 | 27971 ft | 458 kts | 27° |
| 2026-05-06 22:28 | 44.45201 | -75.62028 | 27702 ft | 450 kts | 27° |
| 2026-05-06 22:28 | 44.47830 | -75.59663 | 27274 ft | 447 kts | 27° |
| 2026-05-06 22:29 | 44.50444 | -75.57313 | 26888 ft | 444 kts | 27° |
| 2026-05-06 22:29 | 44.53001 | -75.55011 | 26492 ft | 441 kts | 27° |
| 2026-05-06 22:29 | 44.55575 | -75.52692 | 26109 ft | 438 kts | 27° |
| 2026-05-06 22:29 | 44.58130 | -75.50387 | 25724 ft | 435 kts | 27° |
| 2026-05-06 22:30 | 44.60674 | -75.48090 | 25344 ft | 434 kts | 27° |
| 2026-05-06 22:30 | 44.63217 | -75.45792 | 24967 ft | 434 kts | 27° |
| 2026-05-06 22:30 | 44.65753 | -75.43497 | 24585 ft | 433 kts | 28° |
| 2026-05-06 22:30 | 44.68278 | -75.41208 | 24208 ft | 431 kts | 28° |
| 2026-05-06 22:31 | 44.70799 | -75.38921 | 23829 ft | 429 kts | 28° |
| 2026-05-06 22:31 | 44.73217 | -75.36457 | 23427 ft | 432 kts | 40° |
| 2026-05-06 22:31 | 44.75274 | -75.33376 | 23009 ft | 432 kts | 47° |
| 2026-05-06 22:31 | 44.77185 | -75.30178 | 22601 ft | 430 kts | 49° |
| 2026-05-06 22:32 | 44.79088 | -75.26935 | 22202 ft | 427 kts | 49° |
| 2026-05-06 22:32 | 44.80987 | -75.23732 | 21819 ft | 424 kts | 48° |
| 2026-05-06 22:32 | 44.82893 | -75.20574 | 21431 ft | 421 kts | 47° |
| 2026-05-06 22:32 | 44.84797 | -75.17457 | 21085 ft | 418 kts | 47° |
| 2026-05-06 22:33 | 44.86698 | -75.14368 | 20724 ft | 415 kts | 47° |
| 2026-05-06 22:33 | 44.88590 | -75.11299 | 20351 ft | 413 kts | 47° |
| 2026-05-06 22:33 | 44.90451 | -75.08279 | 20000 ft | 412 kts | 47° |
| 2026-05-06 22:33 | 44.92327 | -75.05231 | 19648 ft | 412 kts | 47° |
| 2026-05-06 22:34 | 44.94206 | -75.02172 | 19291 ft | 411 kts | 47° |
| 2026-05-06 22:34 | 44.96075 | -74.99126 | 18918 ft | 409 kts | 47° |
| 2026-05-06 22:34 | 44.97930 | -74.96097 | 18563 ft | 406 kts | 47° |
| 2026-05-06 22:34 | 44.99616 | -74.92918 | 18195 ft | 404 kts | 57° |
| 2026-05-06 22:35 | 45.01025 | -74.89491 | 17807 ft | 403 kts | 62° |
| 2026-05-06 22:35 | 45.02334 | -74.85988 | 17494 ft | 400 kts | 62° |
| 2026-05-06 22:35 | 45.03632 | -74.82504 | 17177 ft | 399 kts | 62° |
| 2026-05-06 22:35 | 45.04945 | -74.79056 | 16836 ft | 399 kts | 61° |
| 2026-05-06 22:36 | 45.06286 | -74.75614 | 16482 ft | 398 kts | 60° |
| 2026-05-06 22:36 | 45.07616 | -74.72244 | 16127 ft | 395 kts | 60° |
| 2026-05-06 22:36 | 45.08955 | -74.68871 | 15776 ft | 391 kts | 60° |
| 2026-05-06 22:36 | 45.10281 | -74.65526 | 15431 ft | 388 kts | 60° |
| 2026-05-06 22:37 | 45.11602 | -74.62189 | 15092 ft | 387 kts | 60° |
| 2026-05-06 22:37 | 45.12959 | -74.58893 | 14745 ft | 387 kts | 57° |
| 2026-05-06 22:37 | 45.14388 | -74.55655 | 14406 ft | 386 kts | 56° |
| 2026-05-06 22:37 | 45.15801 | -74.52495 | 14068 ft | 383 kts | 56° |
| 2026-05-06 22:38 | 45.17230 | -74.49274 | 13728 ft | 379 kts | 57° |
| 2026-05-06 22:38 | 45.18621 | -74.46104 | 13338 ft | 377 kts | 57° |
| 2026-05-06 22:38 | 45.19978 | -74.42994 | 13003 ft | 376 kts | 57° |
| 2026-05-06 22:38 | 45.21352 | -74.39834 | 12653 ft | 375 kts | 57° |
| 2026-05-06 22:39 | 45.22712 | -74.36690 | 12323 ft | 372 kts | 57° |
| 2026-05-06 22:39 | 45.24057 | -74.33576 | 11990 ft | 368 kts | 57° |
| 2026-05-06 22:39 | 45.25390 | -74.30487 | 11675 ft | 366 kts | 57° |
| 2026-05-06 22:39 | 45.26718 | -74.27407 | 11354 ft | 365 kts | 57° |
| 2026-05-06 22:40 | 45.28043 | -74.24330 | 11031 ft | 364 kts | 57° |
| 2026-05-06 22:40 | 45.29360 | -74.21271 | 10714 ft | 361 kts | 57° |
| 2026-05-06 22:40 | 45.30648 | -74.18274 | 10387 ft | 357 kts | 58° |
| 2026-05-06 22:40 | 45.31931 | -74.15288 | 10092 ft | 353 kts | 58° |
| 2026-05-06 22:41 | 45.34454 | -74.09404 | 9459 ft | 345 kts | 58° |
| 2026-05-06 22:41 | 45.35697 | -74.06509 | 9137 ft | 340 kts | 56° |
| 2026-05-06 22:41 | 45.37141 | -74.03928 | 8786 ft | 329 kts | 41° |
| 2026-05-06 22:42 | 45.38821 | -74.01770 | 8516 ft | 322 kts | 36° |
| 2026-05-06 22:42 | 45.40516 | -73.99723 | 8229 ft | 317 kts | 36° |
| 2026-05-06 22:42 | 45.42160 | -73.97676 | 8043 ft | 307 kts | 37° |
| 2026-05-06 22:42 | 45.43639 | -73.95780 | 7988 ft | 299 kts | 38° |
| 2026-05-06 22:43 | 45.45194 | -73.93767 | 8000 ft | 302 kts | 38° |
| 2026-05-06 22:43 | 45.46763 | -73.91731 | 8017 ft | 309 kts | 38° |
| 2026-05-06 22:43 | 45.48366 | -73.89644 | 7999 ft | 312 kts | 38° |
| 2026-05-06 22:43 | 45.49960 | -73.87561 | 7957 ft | 310 kts | 38° |
| 2026-05-06 22:44 | 45.51538 | -73.85497 | 7726 ft | 306 kts | 38° |
| 2026-05-06 22:44 | 45.53095 | -73.83458 | 7443 ft | 301 kts | 38° |
| 2026-05-06 22:44 | 45.54632 | -73.81446 | 7105 ft | 298 kts | 38° |
| 2026-05-06 22:44 | 45.56151 | -73.79457 | 6790 ft | 294 kts | 38° |
| 2026-05-06 22:45 | 45.57632 | -73.77517 | 6488 ft | 290 kts | 39° |
| 2026-05-06 22:45 | 45.59101 | -73.75589 | 6126 ft | 282 kts | 39° |
| 2026-05-06 22:45 | 45.60538 | -73.73704 | 5508 ft | 280 kts | 39° |
| 2026-05-06 22:45 | 45.61978 | -73.71815 | 5045 ft | 280 kts | 39° |
| 2026-05-06 22:46 | 45.63384 | -73.69966 | 4930 ft | 267 kts | 39° |
| 2026-05-06 22:46 | 45.64722 | -73.68203 | 4770 ft | 255 kts | 39° |
| 2026-05-06 22:46 | 45.66005 | -73.66513 | 4527 ft | 247 kts | 39° |
| 2026-05-06 22:46 | 45.67249 | -73.64875 | 4286 ft | 239 kts | 39° |
| 2026-05-06 22:47 | 45.68319 | -73.63096 | 3973 ft | 235 kts | 65° |
| 2026-05-06 22:47 | 45.68589 | -73.60832 | 3993 ft | 241 kts | 99° |
| 2026-05-06 22:47 | 45.67989 | -73.58598 | 3822 ft | 243 kts | 132° |
| 2026-05-06 22:47 | 45.66712 | -73.57125 | 3591 ft | 231 kts | 160° |
| 2026-05-06 22:48 | 45.65244 | -73.56315 | 3347 ft | 222 kts | 175° |
| 2026-05-06 22:48 | 45.63754 | -73.56321 | 3104 ft | 209 kts | 194° |
| 2026-05-06 22:48 | 45.62352 | -73.56646 | 3043 ft | 200 kts | 196° |
| 2026-05-06 22:48 | 45.61137 | -73.57221 | 2987 ft | 168 kts | 221° |
| 2026-05-06 22:49 | 45.60243 | -73.58191 | 2992 ft | 159 kts | 221° |
| 2026-05-06 22:49 | 45.59389 | -73.59140 | 2998 ft | 158 kts | 225° |
| 2026-05-06 22:49 | 45.58555 | -73.60172 | 2987 ft | 160 kts | 226° |
| 2026-05-06 22:49 | 45.57732 | -73.61235 | 2746 ft | 156 kts | 226° |
| 2026-05-06 22:50 | 45.56956 | -73.62250 | 2556 ft | 145 kts | 227° |
| 2026-05-06 22:50 | 45.56254 | -73.63170 | 2366 ft | 132 kts | 228° |
| 2026-05-06 22:50 | 45.55586 | -73.64052 | 2199 ft | 130 kts | 228° |
| 2026-05-06 22:50 | 45.54919 | -73.64932 | 2020 ft | 131 kts | 228° |
| 2026-05-06 22:51 | 45.54249 | -73.65813 | 1854 ft | 131 kts | 228° |
| 2026-05-06 22:51 | 45.53583 | -73.66690 | 1670 ft | 131 kts | 227° |
| 2026-05-06 22:51 | 45.52911 | -73.67574 | 1503 ft | 131 kts | 228° |
| 2026-05-06 22:51 | 45.52245 | -73.68450 | 1321 ft | 132 kts | 228° |
| 2026-05-06 22:52 | 45.51574 | -73.69332 | 1109 ft | 131 kts | 227° |
| 2026-05-06 22:52 | 45.50905 | -73.70212 | 883 ft | 132 kts | 225° |
| 2026-05-06 22:52 | 45.50233 | -73.71093 | 696 ft | 130 kts | 223° |
| 2026-05-06 22:52 | 45.49554 | -73.71986 | 498 ft | 135 kts | 222° |
| 2026-05-06 22:53 | 45.48852 | -73.72907 | 312 ft | 138 kts | 223° |
| 2026-05-06 22:53 | 45.48141 | -73.73831 | 137 ft | 136 kts | 222° |
| 2026-05-06 22:53 | 45.47522 | -73.74648 | 114 ft | 105 kts | 223° |
| 2026-05-06 22:53 | 45.47077 | -73.75233 | 109 ft | 69 kts | 222° |
| 2026-05-06 22:54 | 45.46800 | -73.75547 | 112 ft | 34 kts | 205° |
| 2026-05-06 22:54 | 45.46636 | -73.75620 | 113 ft | 17 kts | 193° |